createdAt,value
2022-10-04T00:01:43.994Z,14.97
2022-10-04T00:04:52.843Z,11.52
2022-10-04T00:08:00.470Z,10.73
2022-10-04T00:11:13.439Z,10.88
2022-10-04T00:14:36.947Z,10.68
2022-10-04T00:17:38.428Z,13.02
2022-10-04T00:20:53.164Z,10.00
2022-10-04T00:24:10.514Z,13.45
2022-10-04T00:27:24.336Z,11.23
2022-10-04T00:30:25.881Z,10.63
2022-10-04T00:33:53.879Z,12.20
2022-10-04T00:36:56.508Z,10.82
2022-10-04T00:40:09.933Z,9.65
2022-10-04T00:43:22.008Z,10.77
2022-10-04T00:46:27.792Z,11.52
2022-10-04T00:49:36.674Z,12.77
2022-10-04T00:52:46.721Z,9.98
2022-10-04T00:55:57.030Z,14.23
2022-10-04T00:59:12.226Z,10.02
2022-10-04T01:02:40.536Z,10.27
2022-10-04T01:05:50.868Z,10.15
2022-10-04T01:09:01.645Z,11.10
2022-10-04T01:12:10.711Z,10.18
2022-10-04T01:15:25.405Z,13.82
2022-10-04T01:18:35.527Z,11.30
2022-10-04T01:21:38.676Z,14.05
2022-10-04T01:24:42.624Z,11.43
2022-10-04T01:27:44.430Z,14.30
2022-10-04T01:30:46.211Z,13.10
2022-10-04T01:33:48.507Z,13.70
2022-10-04T01:39:54.338Z,12.43
2022-10-04T01:43:01.340Z,13.13
2022-10-04T01:46:09.727Z,12.38
2022-10-04T01:49:17.073Z,12.88
2022-10-04T01:52:27.001Z,11.07
2022-10-04T01:55:41.235Z,14.45
2022-10-04T01:58:45.402Z,12.35
2022-10-04T02:02:04.112Z,11.52
2022-10-04T02:05:10.236Z,12.05
2022-10-04T02:08:16.289Z,14.88
2022-10-04T02:11:21.329Z,17.17
2022-10-04T02:14:28.524Z,13.55
2022-10-04T02:17:33.545Z,13.98
2022-10-04T02:20:35.150Z,16.20
2022-10-04T02:23:38.913Z,15.65
2022-10-04T02:26:40.583Z,13.05
2022-10-04T02:29:42.348Z,11.93
2022-10-04T02:33:00.361Z,13.38
2022-10-04T02:36:02.320Z,11.15
2022-10-04T02:39:15.393Z,14.65
2022-10-04T02:42:16.821Z,10.73
2022-10-04T02:45:29.113Z,13.93
2022-10-04T02:48:39.293Z,14.07
2022-10-04T02:51:46.878Z,15.13
2022-10-04T02:55:03.406Z,11.70
2022-10-04T02:58:10.750Z,12.32
2022-10-04T03:01:17.694Z,14.35
2022-10-04T03:04:23.316Z,12.98
2022-10-04T03:07:26.347Z,14.88
2022-10-04T03:10:27.861Z,15.05
2022-10-04T03:13:30.888Z,13.60
2022-10-04T03:16:39.094Z,13.18
2022-10-04T03:19:41.000Z,13.95
2022-10-04T03:22:47.025Z,14.20
2022-10-04T03:26:19.188Z,15.15
2022-10-04T03:29:23.788Z,14.93
2022-10-04T03:32:26.254Z,16.55
2022-10-04T03:35:36.335Z,14.27
2022-10-04T03:38:37.930Z,12.77
2022-10-04T03:41:42.100Z,17.15
2022-10-04T03:44:50.161Z,18.33
2022-10-04T03:47:53.629Z,16.52
2022-10-04T03:50:55.623Z,12.82
2022-10-04T03:54:02.337Z,13.45
2022-10-04T03:57:06.009Z,14.52
2022-10-04T04:00:08.365Z,16.17
2022-10-04T04:03:20.346Z,15.75
2022-10-04T04:06:23.505Z,13.52
2022-10-04T04:09:48.138Z,16.42
2022-10-04T04:12:57.203Z,14.13
2022-10-04T04:16:02.723Z,13.32
2022-10-04T04:19:12.723Z,17.52
2022-10-04T04:22:18.291Z,13.30
2022-10-04T04:25:23.520Z,15.88
2022-10-04T04:28:34.269Z,16.58
2022-10-04T04:31:42.056Z,18.17
2022-10-04T04:34:53.140Z,15.98
2022-10-04T04:38:17.684Z,17.10
2022-10-04T04:41:22.078Z,15.27
2022-10-04T04:44:23.575Z,13.98
2022-10-04T04:47:33.839Z,13.43
2022-10-04T04:50:37.927Z,14.63
2022-10-04T04:53:42.961Z,15.07
2022-10-04T04:56:48.638Z,14.30
2022-10-04T04:59:55.593Z,11.75
2022-10-04T05:03:00.237Z,13.05
2022-10-04T05:06:04.765Z,13.18
2022-10-04T05:09:20.635Z,11.93
2022-10-04T05:12:24.060Z,13.90
2022-10-04T05:15:28.001Z,15.02
2022-10-04T05:18:33.579Z,14.90
2022-10-04T05:21:39.613Z,12.55
2022-10-04T05:24:46.151Z,13.10
2022-10-04T05:27:49.723Z,15.43
2022-10-04T05:31:09.588Z,16.58
2022-10-04T05:34:24.588Z,21.65
2022-10-04T05:37:42.689Z,19.10
2022-10-04T05:40:52.313Z,16.02
2022-10-04T05:43:54.200Z,17.23
2022-10-04T05:47:00.881Z,18.42
2022-10-04T05:50:03.565Z,17.90
2022-10-04T05:53:33.987Z,20.70
2022-10-04T05:57:01.817Z,19.75
2022-10-04T06:00:20.692Z,17.15
2022-10-04T06:04:10.520Z,20.00
2022-10-04T06:07:49.650Z,32.15
2022-10-04T06:11:05.255Z,29.40
2022-10-04T06:14:26.097Z,22.35
2022-10-04T06:17:51.742Z,21.65
2022-10-04T06:21:08.513Z,19.95
2022-10-04T06:24:17.755Z,18.70
2022-10-04T06:27:41.544Z,18.58
2022-10-04T06:31:21.953Z,13.32
2022-10-04T06:34:35.752Z,13.40
2022-10-04T06:37:50.752Z,12.35
2022-10-04T06:40:55.070Z,13.13
2022-10-04T06:44:19.253Z,13.52
2022-10-04T06:47:51.660Z,13.55
2022-10-04T06:51:02.353Z,15.48
2022-10-04T06:54:38.814Z,12.90
2022-10-04T06:58:08.331Z,23.15
2022-10-04T07:01:32.207Z,15.00
2022-10-04T07:05:06.445Z,15.18
2022-10-04T07:08:38.469Z,13.00
2022-10-04T07:11:58.257Z,13.70
2022-10-04T07:15:03.169Z,26.25
2022-10-04T07:18:11.809Z,16.48
2022-10-04T07:21:16.709Z,15.45
2022-10-04T07:24:32.628Z,15.63
2022-10-04T07:28:17.054Z,15.15
2022-10-04T07:31:27.960Z,15.07
2022-10-04T07:34:32.732Z,15.45
2022-10-04T07:37:44.973Z,33.15
2022-10-04T07:40:58.579Z,18.73
2022-10-04T07:44:18.280Z,17.52
2022-10-04T07:47:22.042Z,14.65
2022-10-04T07:50:34.555Z,15.30
2022-10-04T07:57:01.201Z,13.88
2022-10-04T08:00:11.588Z,14.90
2022-10-04T08:03:32.255Z,15.95
2022-10-04T08:06:39.477Z,13.68
2022-10-04T08:09:53.087Z,16.40
2022-10-04T08:13:12.026Z,12.15
2022-10-04T08:16:35.025Z,11.88
2022-10-04T08:20:12.023Z,11.85
2022-10-04T08:23:51.091Z,11.07
2022-10-04T08:27:10.616Z,11.52
2022-10-04T08:30:17.156Z,14.02
2022-10-04T08:33:42.122Z,11.88
2022-10-04T08:37:15.648Z,12.80
2022-10-04T08:40:45.562Z,11.95
2022-10-04T08:44:01.387Z,13.55
2022-10-04T08:47:22.249Z,13.52
2022-10-04T08:50:48.465Z,11.68
2022-10-04T08:54:23.305Z,12.52
2022-10-04T08:57:52.827Z,15.23
2022-10-04T09:01:19.581Z,13.27
2022-10-04T09:04:29.766Z,13.75
2022-10-04T09:08:06.414Z,14.52
2022-10-04T09:11:29.941Z,14.15
2022-10-04T09:14:38.705Z,15.20
2022-10-04T09:17:55.699Z,15.00
2022-10-04T09:21:08.304Z,13.45
2022-10-04T09:24:38.867Z,14.02
2022-10-04T09:28:17.858Z,16.52
2022-10-04T09:31:52.529Z,15.02
2022-10-04T09:35:11.699Z,13.00
2022-10-04T09:38:29.817Z,16.98
2022-10-04T09:41:51.162Z,15.35
2022-10-04T09:45:21.835Z,15.82
2022-10-04T09:48:32.757Z,17.02
2022-10-04T09:52:14.235Z,16.10
2022-10-04T09:55:53.543Z,15.90
2022-10-04T09:59:22.722Z,15.35
2022-10-04T10:02:45.120Z,15.27
2022-10-04T10:06:05.093Z,15.32
2022-10-04T10:10:00.848Z,16.27
2022-10-04T10:13:45.180Z,16.17
2022-10-04T10:17:26.952Z,15.63
2022-10-04T10:20:57.463Z,18.27
2022-10-04T10:24:17.380Z,19.17
2022-10-04T10:27:40.887Z,16.67
2022-10-04T10:31:24.503Z,17.77
2022-10-04T10:34:35.030Z,18.08
2022-10-04T10:37:52.748Z,16.08
2022-10-04T10:40:54.101Z,14.32
2022-10-04T10:44:08.968Z,15.80
2022-10-04T10:47:26.226Z,17.67
2022-10-04T10:50:58.375Z,14.50
2022-10-04T10:54:30.250Z,16.02
2022-10-04T10:58:02.271Z,17.03
2022-10-04T11:01:22.636Z,19.35
2022-10-04T11:04:54.192Z,13.82
2022-10-04T11:08:01.884Z,15.43
2022-10-04T11:11:34.826Z,15.80
2022-10-04T11:15:01.331Z,19.17
2022-10-04T11:18:46.826Z,16.17
2022-10-04T11:22:07.473Z,13.75
2022-10-04T11:25:42.912Z,13.68
2022-10-04T11:29:12.697Z,16.15
2022-10-04T11:32:19.214Z,13.27
2022-10-04T11:35:41.587Z,16.65
2022-10-04T11:39:01.212Z,13.50
2022-10-04T11:42:08.108Z,21.17
2022-10-04T11:45:34.043Z,14.93
2022-10-04T11:48:41.718Z,12.30
2022-10-04T11:51:49.335Z,12.32
2022-10-04T11:55:35.251Z,13.20
2022-10-04T11:59:00.827Z,13.52
2022-10-04T12:02:49.184Z,13.27
2022-10-04T12:05:53.358Z,13.02
2022-10-04T12:09:17.291Z,10.65
2022-10-04T12:12:48.415Z,15.40
2022-10-04T12:16:15.498Z,12.75
2022-10-04T12:19:29.165Z,12.93
2022-10-04T12:22:39.528Z,11.43
2022-10-04T12:25:46.828Z,13.57
2022-10-04T12:29:04.118Z,12.65
2022-10-04T12:32:35.553Z,14.38
2022-10-04T12:35:47.889Z,11.60
2022-10-04T12:39:13.260Z,13.50
2022-10-04T12:42:22.965Z,14.48
2022-10-04T12:45:56.819Z,17.13
2022-10-04T12:49:27.352Z,12.35
2022-10-04T12:52:40.173Z,11.63
2022-10-04T12:55:52.852Z,15.45
2022-10-04T12:59:15.331Z,12.25
2022-10-04T13:02:44.625Z,9.07
2022-10-04T13:05:46.014Z,10.68
2022-10-04T13:08:56.447Z,16.17
2022-10-04T13:12:09.821Z,15.48
2022-10-04T13:19:19.434Z,9.18
2022-10-04T13:22:51.756Z,11.52
2022-10-04T13:26:15.456Z,13.75
2022-10-04T13:29:28.443Z,11.43
2022-10-04T13:33:03.250Z,11.00
2022-10-04T13:36:23.013Z,11.80
2022-10-04T13:39:51.151Z,10.45
2022-10-04T13:43:12.714Z,12.82
2022-10-04T13:46:28.407Z,12.90
2022-10-04T13:49:51.204Z,10.05
2022-10-04T13:53:23.176Z,10.73
2022-10-04T13:56:43.992Z,9.50
2022-10-04T14:00:02.157Z,9.40
2022-10-04T14:03:44.427Z,12.55
2022-10-04T14:07:18.538Z,10.90
2022-10-04T14:10:47.837Z,10.93
2022-10-04T14:14:10.060Z,10.88
2022-10-04T14:17:48.155Z,10.60
2022-10-04T14:20:59.761Z,12.65
2022-10-04T14:24:33.274Z,9.77
2022-10-04T14:28:03.934Z,8.82
2022-10-04T14:31:47.160Z,12.30
2022-10-04T14:35:10.499Z,11.10
2022-10-04T14:38:14.874Z,9.38
2022-10-04T14:41:35.080Z,11.98
2022-10-04T14:44:45.502Z,9.07
2022-10-04T14:48:08.697Z,14.48
2022-10-04T14:51:28.987Z,10.65
2022-10-04T14:54:42.116Z,9.35
2022-10-04T14:58:16.791Z,11.43
2022-10-04T15:01:29.337Z,8.98
2022-10-04T15:04:48.855Z,10.57
2022-10-04T15:07:57.006Z,11.23
2022-10-04T15:11:03.548Z,14.02
2022-10-04T15:14:23.107Z,11.77
2022-10-04T15:17:27.468Z,9.77
2022-10-04T15:20:36.256Z,11.48
2022-10-04T15:23:48.618Z,11.77
2022-10-04T15:27:11.235Z,16.75
2022-10-04T15:30:30.974Z,10.23
2022-10-04T15:34:03.597Z,10.90
2022-10-04T15:37:25.380Z,9.18
2022-10-04T15:40:30.662Z,9.63
2022-10-04T15:43:53.989Z,11.75
2022-10-04T15:47:07.389Z,11.77
2022-10-04T15:50:27.559Z,11.82
2022-10-04T15:53:50.808Z,9.40
2022-10-04T15:57:00.540Z,10.70
2022-10-04T16:00:10.016Z,10.50
2022-10-04T16:03:14.426Z,9.57
2022-10-04T16:06:34.219Z,12.88
2022-10-04T16:09:46.489Z,10.48
2022-10-04T16:12:48.503Z,10.73
2022-10-04T16:16:32.684Z,12.57
2022-10-04T16:19:53.170Z,12.40
2022-10-04T16:23:25.516Z,11.23
2022-10-04T16:26:27.213Z,10.57
2022-10-04T16:29:50.909Z,13.60
2022-10-04T16:33:33.131Z,10.60
2022-10-04T16:36:58.741Z,12.68
2022-10-04T16:40:09.379Z,13.70
2022-10-04T16:43:32.534Z,10.73
2022-10-04T16:46:46.236Z,8.98
2022-10-04T16:49:54.830Z,9.32
2022-10-04T16:52:57.379Z,13.02
2022-10-04T16:56:11.939Z,13.57
2022-10-04T16:59:13.509Z,11.20
2022-10-04T17:03:09.700Z,12.38
2022-10-04T17:06:15.505Z,16.02
2022-10-04T17:09:19.388Z,16.73
2022-10-04T17:12:35.181Z,11.73
2022-10-04T17:15:59.618Z,11.75
2022-10-04T17:19:32.660Z,11.98
2022-10-04T17:22:53.701Z,12.85
2022-10-04T17:26:16.827Z,13.65
2022-10-04T17:29:44.940Z,11.20
2022-10-04T17:33:01.441Z,10.07
2022-10-04T17:36:33.708Z,12.00
2022-10-04T17:39:48.048Z,16.88
2022-10-04T17:43:00.589Z,12.68
2022-10-04T17:46:30.498Z,14.07
2022-10-04T17:49:56.749Z,13.82
2022-10-04T17:53:23.260Z,15.60
2022-10-04T17:56:49.205Z,15.82
2022-10-04T17:59:59.489Z,15.07
2022-10-04T18:03:12.334Z,14.23
2022-10-04T18:06:27.255Z,14.00
2022-10-04T18:09:45.443Z,14.32
2022-10-04T18:12:56.675Z,16.77
2022-10-04T18:16:18.589Z,17.15
2022-10-04T18:19:41.438Z,13.85
2022-10-04T18:22:51.185Z,15.18
2022-10-04T18:26:02.763Z,16.45
2022-10-04T18:29:08.840Z,14.93
2022-10-04T18:32:31.964Z,14.68
2022-10-04T18:35:34.098Z,14.52
2022-10-04T18:41:52.552Z,14.77
2022-10-04T18:45:01.175Z,15.02
2022-10-04T18:48:15.236Z,19.05
2022-10-04T18:51:39.138Z,17.42
2022-10-04T18:54:49.514Z,17.55
2022-10-04T18:59:10.990Z,15.75
2022-10-04T19:02:24.539Z,15.88
2022-10-04T19:05:39.122Z,15.68
2022-10-04T19:08:55.424Z,17.83
2022-10-04T19:12:02.405Z,16.45
2022-10-04T19:15:24.164Z,18.13
2022-10-04T19:18:31.630Z,19.27
2022-10-04T19:21:39.086Z,21.30
2022-10-04T19:24:55.239Z,20.38
2022-10-04T19:28:00.537Z,25.38
2022-10-04T19:31:21.491Z,18.77
2022-10-04T19:35:07.819Z,20.13
2022-10-04T19:38:24.193Z,19.92
2022-10-04T19:41:37.656Z,20.90
2022-10-04T19:45:08.100Z,19.80
2022-10-04T19:48:24.583Z,17.73
2022-10-04T19:51:39.714Z,22.38
2022-10-04T19:54:41.158Z,20.02
2022-10-04T19:57:42.814Z,22.13
2022-10-04T20:00:44.323Z,21.08
2022-10-04T20:03:45.849Z,20.83
2022-10-04T20:06:50.136Z,16.73
2022-10-04T20:10:08.068Z,19.20
2022-10-04T20:13:21.710Z,16.33
2022-10-04T20:16:54.129Z,19.25
2022-10-04T20:19:55.665Z,15.80
2022-10-04T20:22:57.170Z,15.50
2022-10-04T20:25:59.241Z,20.98
2022-10-04T20:29:00.674Z,15.07
2022-10-04T20:32:04.137Z,15.27
2022-10-04T20:35:32.674Z,16.77
2022-10-04T20:38:59.845Z,16.17
2022-10-04T20:42:20.104Z,16.23
2022-10-04T20:45:22.803Z,17.88
2022-10-04T20:48:26.620Z,16.25
2022-10-04T20:51:32.816Z,18.13
2022-10-04T20:54:35.286Z,18.17
2022-10-04T20:57:40.584Z,15.25
2022-10-04T21:00:54.724Z,14.02
2022-10-04T21:04:12.232Z,17.90
2022-10-04T21:07:24.286Z,14.73
2022-10-04T21:10:28.542Z,14.88
2022-10-04T21:13:48.606Z,13.77
2022-10-04T21:16:52.530Z,14.50
2022-10-04T21:19:54.711Z,13.70
2022-10-04T21:23:30.196Z,16.35
2022-10-04T21:26:34.856Z,15.60
2022-10-04T21:29:39.910Z,17.92
2022-10-04T21:32:41.472Z,17.27
2022-10-04T21:35:42.897Z,16.10
2022-10-04T21:38:44.545Z,19.20
2022-10-04T21:41:45.995Z,18.08
2022-10-04T21:44:47.656Z,14.90
2022-10-04T21:47:49.080Z,15.55
2022-10-04T21:50:52.403Z,17.00
2022-10-04T21:53:53.882Z,14.70
2022-10-04T21:56:55.584Z,17.10
2022-10-04T21:59:57.021Z,13.25
2022-10-04T22:02:58.552Z,12.03
2022-10-04T22:06:02.850Z,12.50
2022-10-04T22:09:05.529Z,14.20
2022-10-04T22:12:06.929Z,15.10
2022-10-04T22:15:09.149Z,12.90
2022-10-04T22:18:10.670Z,12.45
2022-10-04T22:21:12.045Z,12.57
2022-10-04T22:24:19.642Z,12.57
2022-10-04T22:27:21.390Z,14.73
2022-10-04T22:30:29.042Z,15.60
2022-10-04T22:33:36.622Z,14.73
2022-10-04T22:36:39.616Z,13.23
2022-10-04T22:39:41.095Z,11.40
2022-10-04T22:42:43.073Z,12.25
2022-10-04T22:45:44.746Z,10.68
2022-10-04T22:48:48.559Z,17.92
2022-10-04T22:51:52.379Z,13.48
2022-10-04T22:54:57.829Z,13.82
2022-10-04T22:57:59.378Z,10.48
2022-10-04T23:01:01.184Z,12.38
2022-10-04T23:04:04.253Z,12.50
2022-10-04T23:07:05.680Z,11.88
2022-10-04T23:10:08.491Z,11.23
2022-10-04T23:13:10.145Z,12.00
2022-10-04T23:16:22.179Z,13.73
2022-10-04T23:19:24.796Z,10.82
2022-10-04T23:22:28.847Z,12.98
2022-10-04T23:25:30.562Z,11.75
2022-10-04T23:28:32.075Z,11.43
2022-10-04T23:31:36.982Z,10.50
2022-10-04T23:34:40.243Z,10.60
2022-10-04T23:37:41.790Z,11.30
2022-10-04T23:40:44.609Z,13.18
2022-10-04T23:43:47.430Z,10.07
2022-10-04T23:46:49.168Z,11.40
2022-10-04T23:49:53.394Z,12.40
2022-10-04T23:53:02.203Z,11.45
2022-10-04T23:56:11.808Z,11.50
2022-10-04T23:59:17.201Z,12.70
